UAL1748 KLAX-KSFO
Flight info
| Callsign | UAL1748 |
|---|---|
| Flight time | 0h 55m |
| Altitude | 34000 |
| Route | SUMMR2 STOKD SERFR SERFR4 |
| Aircraft | B753/M-SDE2E3FGHIJ3J4J7RWXY/LB1 |
Departure
| Time | 2026-04-25 04:26 |
|---|---|
| Airport | Los Angeles International Airport (KLAX) |
Arrival
| Time | 2026-04-25 05:22 |
|---|---|
| Airport | San Francisco International Airport (KSFO) |
| Time | Latitude | Longitude | Altitude | Speed | Heading |
|---|---|---|---|---|---|
| 2026-04-25 03:54 | 33.94115 | -118.40028 | 119 ft | 0 kts | 94° |
| 2026-04-25 04:17 | 33.94115 | -118.40036 | 119 ft | 2 kts | 94° |
| 2026-04-25 04:17 | 33.94117 | -118.40054 | 119 ft | 2 kts | 94° |
| 2026-04-25 04:18 | 33.94118 | -118.40071 | 119 ft | 2 kts | 117° |
| 2026-04-25 04:18 | 33.94128 | -118.40085 | 119 ft | 2 kts | 146° |
| 2026-04-25 04:18 | 33.94139 | -118.40091 | 119 ft | 0 kts | 171° |
| 2026-04-25 04:18 | 33.94146 | -118.40092 | 119 ft | 0 kts | 174° |
| 2026-04-25 04:21 | 33.94133 | -118.40089 | 119 ft | 7 kts | 173° |
| 2026-04-25 04:22 | 33.94035 | -118.40074 | 119 ft | 19 kts | 174° |
| 2026-04-25 04:22 | 33.93908 | -118.40039 | 120 ft | 17 kts | 139° |
| 2026-04-25 04:22 | 33.93889 | -118.39907 | 117 ft | 16 kts | 83° |
| 2026-04-25 04:22 | 33.93907 | -118.39731 | 114 ft | 23 kts | 83° |
| 2026-04-25 04:23 | 33.93927 | -118.39535 | 112 ft | 24 kts | 83° |
| 2026-04-25 04:23 | 33.93948 | -118.39332 | 109 ft | 23 kts | 83° |
| 2026-04-25 04:23 | 33.93967 | -118.39148 | 109 ft | 20 kts | 84° |
| 2026-04-25 04:23 | 33.93984 | -118.38982 | 106 ft | 18 kts | 83° |
| 2026-04-25 04:24 | 33.93996 | -118.38839 | 106 ft | 15 kts | 84° |
| 2026-04-25 04:24 | 33.94011 | -118.38709 | 106 ft | 18 kts | 82° |
| 2026-04-25 04:24 | 33.94029 | -118.38541 | 106 ft | 22 kts | 83° |
| 2026-04-25 04:24 | 33.94051 | -118.38322 | 103 ft | 27 kts | 83° |
| 2026-04-25 04:25 | 33.94074 | -118.38100 | 103 ft | 24 kts | 85° |
| 2026-04-25 04:25 | 33.93987 | -118.38036 | 103 ft | 17 kts | 241° |
| 2026-04-25 04:25 | 33.93980 | -118.38065 | 103 ft | 1 kts | 261° |
| 2026-04-25 04:25 | 33.93975 | -118.38113 | 103 ft | 20 kts | 264° |
| 2026-04-25 04:26 | 33.93928 | -118.38566 | 106 ft | 89 kts | 263° |
| 2026-04-25 04:26 | 33.93825 | -118.39580 | 113 ft | 160 kts | 263° |
| 2026-04-25 04:26 | 33.93655 | -118.41071 | 693 ft | 191 kts | 261° |
| 2026-04-25 04:26 | 33.93459 | -118.42643 | 1819 ft | 191 kts | 262° |
| 2026-04-25 04:27 | 33.93307 | -118.44207 | 2502 ft | 198 kts | 263° |
| 2026-04-25 04:27 | 33.93152 | -118.45946 | 2917 ft | 221 kts | 264° |
| 2026-04-25 04:27 | 33.92999 | -118.47882 | 3425 ft | 242 kts | 265° |
| 2026-04-25 04:27 | 33.92835 | -118.49927 | 4080 ft | 257 kts | 266° |
| 2026-04-25 04:28 | 33.92659 | -118.52108 | 4819 ft | 268 kts | 266° |
| 2026-04-25 04:28 | 33.92478 | -118.54319 | 5900 ft | 266 kts | 265° |
| 2026-04-25 04:28 | 33.92296 | -118.56540 | 6760 ft | 271 kts | 265° |
| 2026-04-25 04:28 | 33.92110 | -118.58788 | 7688 ft | 273 kts | 265° |
| 2026-04-25 04:29 | 33.91924 | -118.61035 | 8554 ft | 276 kts | 264° |
| 2026-04-25 04:29 | 33.91781 | -118.63326 | 9446 ft | 278 kts | 269° |
| 2026-04-25 04:29 | 33.91774 | -118.65679 | 10288 ft | 281 kts | 269° |
| 2026-04-25 04:29 | 33.91763 | -118.68066 | 10906 ft | 294 kts | 269° |
| 2026-04-25 04:30 | 33.91752 | -118.70598 | 11322 ft | 312 kts | 269° |
| 2026-04-25 04:30 | 33.91741 | -118.73265 | 11843 ft | 325 kts | 269° |
| 2026-04-25 04:30 | 33.91730 | -118.76038 | 12019 ft | 332 kts | 269° |
| 2026-04-25 04:30 | 33.91718 | -118.78728 | 13183 ft | 322 kts | 269° |
| 2026-04-25 04:31 | 33.91705 | -118.81384 | 14411 ft | 321 kts | 269° |
| 2026-04-25 04:31 | 33.91713 | -118.84023 | 15618 ft | 318 kts | 270° |
| 2026-04-25 04:31 | 33.91796 | -118.86637 | 16765 ft | 316 kts | 271° |
| 2026-04-25 04:31 | 33.91874 | -118.89211 | 17897 ft | 311 kts | 271° |
| 2026-04-25 04:32 | 33.91950 | -118.91759 | 18982 ft | 307 kts | 271° |
| 2026-04-25 04:32 | 33.92026 | -118.94318 | 19850 ft | 309 kts | 270° |
| 2026-04-25 04:32 | 33.92101 | -118.96892 | 20524 ft | 314 kts | 271° |
| 2026-04-25 04:32 | 33.92195 | -118.99610 | 20571 ft | 335 kts | 275° |
| 2026-04-25 04:33 | 33.92757 | -119.02426 | 20653 ft | 357 kts | 290° |
| 2026-04-25 04:33 | 33.93990 | -119.05044 | 21282 ft | 362 kts | 298° |
| 2026-04-25 04:33 | 33.95328 | -119.07610 | 21882 ft | 364 kts | 297° |
| 2026-04-25 04:33 | 33.96658 | -119.10191 | 22499 ft | 366 kts | 297° |
| 2026-04-25 04:34 | 33.97998 | -119.12791 | 23072 ft | 368 kts | 297° |
| 2026-04-25 04:34 | 33.99354 | -119.15422 | 23623 ft | 371 kts | 298° |
| 2026-04-25 04:34 | 34.00886 | -119.17941 | 24148 ft | 379 kts | 307° |
| 2026-04-25 04:34 | 34.02840 | -119.20107 | 24683 ft | 389 kts | 317° |
| 2026-04-25 04:35 | 34.05047 | -119.22034 | 25161 ft | 394 kts | 318° |
| 2026-04-25 04:35 | 34.07264 | -119.23965 | 25698 ft | 396 kts | 318° |
| 2026-04-25 04:35 | 34.09496 | -119.25898 | 26224 ft | 399 kts | 318° |
| 2026-04-25 04:35 | 34.11763 | -119.27858 | 26751 ft | 401 kts | 318° |
| 2026-04-25 04:36 | 34.14040 | -119.29823 | 27220 ft | 403 kts | 318° |
| 2026-04-25 04:36 | 34.16325 | -119.31794 | 27666 ft | 407 kts | 318° |
| 2026-04-25 04:36 | 34.18629 | -119.33782 | 28137 ft | 409 kts | 318° |
| 2026-04-25 04:36 | 34.20950 | -119.35785 | 28559 ft | 412 kts | 318° |
| 2026-04-25 04:37 | 34.23275 | -119.37791 | 29064 ft | 413 kts | 318° |
| 2026-04-25 04:37 | 34.25612 | -119.39811 | 29467 ft | 415 kts | 318° |
| 2026-04-25 04:37 | 34.27988 | -119.41865 | 29852 ft | 419 kts | 318° |
| 2026-04-25 04:37 | 34.30349 | -119.43906 | 30240 ft | 421 kts | 318° |
| 2026-04-25 04:38 | 34.32725 | -119.45962 | 30666 ft | 422 kts | 317° |
| 2026-04-25 04:38 | 34.35144 | -119.48057 | 30930 ft | 427 kts | 317° |
| 2026-04-25 04:38 | 34.37540 | -119.50128 | 31612 ft | 421 kts | 317° |
| 2026-04-25 04:38 | 34.39895 | -119.52178 | 31993 ft | 421 kts | 316° |
| 2026-04-25 04:39 | 34.42150 | -119.54457 | 32299 ft | 414 kts | 307° |
| 2026-04-25 04:39 | 34.44140 | -119.56925 | 32961 ft | 406 kts | 307° |
| 2026-04-25 04:39 | 34.46095 | -119.59333 | 33254 ft | 408 kts | 307° |
| 2026-04-25 04:39 | 34.48098 | -119.61801 | 33576 ft | 409 kts | 307° |
| 2026-04-25 04:40 | 34.50061 | -119.64214 | 33958 ft | 405 kts | 306° |
| 2026-04-25 04:40 | 34.54019 | -119.69094 | 33961 ft | 402 kts | 306° |
| 2026-04-25 04:41 | 34.57906 | -119.73890 | 33953 ft | 402 kts | 306° |
| 2026-04-25 04:41 | 34.61848 | -119.78763 | 33953 ft | 405 kts | 306° |
| 2026-04-25 04:42 | 34.65786 | -119.83633 | 33953 ft | 405 kts | 306° |
| 2026-04-25 04:42 | 34.69726 | -119.88513 | 33950 ft | 403 kts | 307° |
| 2026-04-25 04:43 | 34.73634 | -119.93360 | 33950 ft | 403 kts | 306° |
| 2026-04-25 04:43 | 34.77564 | -119.98245 | 33955 ft | 405 kts | 306° |
| 2026-04-25 04:44 | 34.81481 | -120.03116 | 33975 ft | 404 kts | 306° |
| 2026-04-25 04:44 | 34.85422 | -120.08028 | 33960 ft | 406 kts | 307° |
| 2026-04-25 04:45 | 34.89340 | -120.12917 | 33951 ft | 405 kts | 307° |
| 2026-04-25 04:45 | 34.93278 | -120.17837 | 33967 ft | 405 kts | 306° |
| 2026-04-25 04:46 | 34.97201 | -120.22746 | 33955 ft | 406 kts | 307° |
| 2026-04-25 04:46 | 35.01143 | -120.27686 | 33951 ft | 407 kts | 307° |
| 2026-04-25 04:47 | 35.05078 | -120.32625 | 33950 ft | 406 kts | 307° |
| 2026-04-25 04:47 | 35.09021 | -120.37555 | 33954 ft | 410 kts | 309° |
| 2026-04-25 04:48 | 35.13232 | -120.42261 | 33950 ft | 409 kts | 310° |
| 2026-04-25 04:48 | 35.17404 | -120.46931 | 33947 ft | 408 kts | 310° |
| 2026-04-25 04:49 | 35.21572 | -120.51601 | 33958 ft | 408 kts | 310° |
| 2026-04-25 04:49 | 35.25744 | -120.56288 | 33948 ft | 407 kts | 310° |
| 2026-04-25 04:50 | 35.29901 | -120.60964 | 33948 ft | 407 kts | 310° |
| 2026-04-25 04:50 | 35.34082 | -120.65676 | 33946 ft | 408 kts | 310° |
| 2026-04-25 04:51 | 35.38245 | -120.70371 | 33954 ft | 405 kts | 310° |
| 2026-04-25 04:51 | 35.42297 | -120.74952 | 33951 ft | 406 kts | 310° |
| 2026-04-25 04:52 | 35.46422 | -120.79618 | 33951 ft | 406 kts | 310° |
| 2026-04-25 04:52 | 35.50820 | -120.84059 | 33948 ft | 410 kts | 315° |
| 2026-04-25 04:53 | 35.55449 | -120.88103 | 33933 ft | 410 kts | 317° |
| 2026-04-25 04:53 | 35.60125 | -120.92081 | 33938 ft | 409 kts | 317° |
| 2026-04-25 04:54 | 35.64805 | -120.96088 | 33940 ft | 410 kts | 317° |
| 2026-04-25 04:54 | 35.69462 | -121.00090 | 33939 ft | 408 kts | 317° |
| 2026-04-25 04:55 | 35.74106 | -121.04088 | 33935 ft | 407 kts | 317° |
| 2026-04-25 04:55 | 35.78721 | -121.08070 | 33929 ft | 407 kts | 317° |
| 2026-04-25 04:56 | 35.83363 | -121.12080 | 33927 ft | 406 kts | 317° |
| 2026-04-25 04:56 | 35.87970 | -121.16067 | 33800 ft | 410 kts | 317° |
| 2026-04-25 04:56 | 35.90276 | -121.18060 | 33066 ft | 399 kts | 317° |
| 2026-04-25 04:57 | 35.92529 | -121.20007 | 32493 ft | 386 kts | 317° |
| 2026-04-25 04:57 | 35.94696 | -121.21892 | 31996 ft | 390 kts | 317° |
| 2026-04-25 04:57 | 35.96940 | -121.23850 | 31492 ft | 402 kts | 317° |
| 2026-04-25 04:57 | 35.99261 | -121.25871 | 30921 ft | 414 kts | 318° |
| 2026-04-25 04:58 | 36.01637 | -121.27933 | 30321 ft | 414 kts | 318° |
| 2026-04-25 04:58 | 36.03959 | -121.29948 | 29734 ft | 408 kts | 318° |
| 2026-04-25 04:58 | 36.06253 | -121.31942 | 29149 ft | 402 kts | 318° |
| 2026-04-25 04:58 | 36.08517 | -121.33914 | 28569 ft | 399 kts | 318° |
| 2026-04-25 04:59 | 36.10805 | -121.35910 | 27981 ft | 398 kts | 318° |
| 2026-04-25 04:59 | 36.13052 | -121.37871 | 27427 ft | 396 kts | 318° |
| 2026-04-25 04:59 | 36.15300 | -121.39834 | 26896 ft | 393 kts | 319° |
| 2026-04-25 04:59 | 36.17503 | -121.41758 | 26369 ft | 390 kts | 319° |
| 2026-04-25 05:00 | 36.19709 | -121.43687 | 25841 ft | 389 kts | 319° |
| 2026-04-25 05:00 | 36.21932 | -121.45633 | 25309 ft | 388 kts | 319° |
| 2026-04-25 05:00 | 36.24113 | -121.47544 | 24786 ft | 386 kts | 319° |
| 2026-04-25 05:00 | 36.26294 | -121.49454 | 24269 ft | 383 kts | 319° |
| 2026-04-25 05:01 | 36.28445 | -121.51341 | 23768 ft | 380 kts | 319° |
| 2026-04-25 05:01 | 36.30607 | -121.53238 | 23261 ft | 379 kts | 320° |
| 2026-04-25 05:01 | 36.32758 | -121.55127 | 22761 ft | 377 kts | 320° |
| 2026-04-25 05:01 | 36.34870 | -121.56982 | 22272 ft | 375 kts | 320° |
| 2026-04-25 05:02 | 36.36988 | -121.58845 | 21779 ft | 373 kts | 320° |
| 2026-04-25 05:02 | 36.39109 | -121.60711 | 21277 ft | 370 kts | 321° |
| 2026-04-25 05:02 | 36.41184 | -121.62537 | 20780 ft | 368 kts | 321° |
| 2026-04-25 05:02 | 36.43276 | -121.64381 | 20287 ft | 367 kts | 321° |
| 2026-04-25 05:03 | 36.45329 | -121.66192 | 19844 ft | 364 kts | 321° |
| 2026-04-25 05:03 | 36.47363 | -121.67984 | 19996 ft | 359 kts | 320° |
| 2026-04-25 05:03 | 36.49439 | -121.69818 | 19850 ft | 373 kts | 321° |
| 2026-04-25 05:03 | 36.51624 | -121.71576 | 19408 ft | 374 kts | 324° |
| 2026-04-25 05:04 | 36.53814 | -121.73293 | 18967 ft | 365 kts | 324° |
| 2026-04-25 05:04 | 36.55937 | -121.74968 | 18524 ft | 358 kts | 324° |
| 2026-04-25 05:04 | 36.58022 | -121.76617 | 18087 ft | 356 kts | 325° |
| 2026-04-25 05:04 | 36.60111 | -121.78270 | 17662 ft | 356 kts | 325° |
| 2026-04-25 05:05 | 36.62198 | -121.79923 | 17236 ft | 354 kts | 325° |
| 2026-04-25 05:05 | 36.64267 | -121.81562 | 16808 ft | 352 kts | 326° |
| 2026-04-25 05:05 | 36.66327 | -121.83196 | 16374 ft | 350 kts | 326° |
| 2026-04-25 05:05 | 36.68348 | -121.84800 | 15946 ft | 348 kts | 327° |
| 2026-04-25 05:06 | 36.70387 | -121.86419 | 15510 ft | 347 kts | 327° |
| 2026-04-25 05:06 | 36.72423 | -121.88037 | 15076 ft | 344 kts | 327° |
| 2026-04-25 05:06 | 36.74519 | -121.89348 | 14929 ft | 336 kts | 341° |
| 2026-04-25 05:06 | 36.76843 | -121.90102 | 14469 ft | 346 kts | 347° |
| 2026-04-25 05:07 | 36.79150 | -121.90771 | 14013 ft | 344 kts | 347° |
| 2026-04-25 05:07 | 36.81486 | -121.91442 | 13531 ft | 337 kts | 348° |
| 2026-04-25 05:07 | 36.83747 | -121.92082 | 13013 ft | 334 kts | 348° |
| 2026-04-25 05:07 | 36.86017 | -121.92721 | 12494 ft | 333 kts | 348° |
| 2026-04-25 05:08 | 36.88266 | -121.93352 | 11966 ft | 332 kts | 348° |
| 2026-04-25 05:08 | 36.90499 | -121.93977 | 11467 ft | 330 kts | 348° |
| 2026-04-25 05:08 | 36.92749 | -121.94607 | 10933 ft | 328 kts | 347° |
| 2026-04-25 05:08 | 36.94971 | -121.95236 | 10419 ft | 326 kts | 346° |
| 2026-04-25 05:09 | 36.97132 | -121.96040 | 10013 ft | 319 kts | 342° |
| 2026-04-25 05:09 | 36.99127 | -121.96830 | 10106 ft | 285 kts | 343° |
| 2026-04-25 05:09 | 37.00971 | -121.97551 | 10056 ft | 279 kts | 343° |
| 2026-04-25 05:09 | 37.02844 | -121.98283 | 9858 ft | 281 kts | 343° |
| 2026-04-25 05:10 | 37.04707 | -121.99010 | 9649 ft | 280 kts | 343° |
| 2026-04-25 05:10 | 37.06558 | -121.99733 | 9444 ft | 279 kts | 343° |
| 2026-04-25 05:10 | 37.08404 | -122.00455 | 9246 ft | 278 kts | 343° |
| 2026-04-25 05:10 | 37.10246 | -122.01174 | 9045 ft | 277 kts | 343° |
| 2026-04-25 05:11 | 37.12112 | -122.01904 | 8831 ft | 277 kts | 343° |
| 2026-04-25 05:11 | 37.13942 | -122.02619 | 8640 ft | 276 kts | 343° |
| 2026-04-25 05:11 | 37.15765 | -122.03332 | 8430 ft | 275 kts | 343° |
| 2026-04-25 05:12 | 37.19417 | -122.04761 | 8011 ft | 273 kts | 342° |
| 2026-04-25 05:12 | 37.21215 | -122.05466 | 7958 ft | 268 kts | 342° |
| 2026-04-25 05:12 | 37.23023 | -122.06175 | 7970 ft | 271 kts | 342° |
| 2026-04-25 05:12 | 37.24844 | -122.06889 | 7966 ft | 273 kts | 342° |
| 2026-04-25 05:13 | 37.26633 | -122.07592 | 7960 ft | 272 kts | 342° |
| 2026-04-25 05:13 | 37.28467 | -122.08312 | 7752 ft | 278 kts | 342° |
| 2026-04-25 05:13 | 37.30297 | -122.09033 | 7356 ft | 269 kts | 342° |
| 2026-04-25 05:13 | 37.32069 | -122.09731 | 7032 ft | 267 kts | 342° |
| 2026-04-25 05:14 | 37.33853 | -122.10434 | 6710 ft | 269 kts | 342° |
| 2026-04-25 05:14 | 37.35637 | -122.11138 | 6400 ft | 269 kts | 342° |
| 2026-04-25 05:14 | 37.37437 | -122.11844 | 6124 ft | 271 kts | 343° |
| 2026-04-25 05:15 | 37.41011 | -122.13077 | 5483 ft | 261 kts | 344° |
| 2026-04-25 05:15 | 37.42744 | -122.13672 | 5156 ft | 258 kts | 345° |
| 2026-04-25 05:15 | 37.44460 | -122.14260 | 4832 ft | 256 kts | 345° |
| 2026-04-25 05:15 | 37.46167 | -122.14832 | 4465 ft | 248 kts | 346° |
| 2026-04-25 05:16 | 37.47809 | -122.15373 | 4108 ft | 236 kts | 345° |
| 2026-04-25 05:16 | 37.49359 | -122.15884 | 3769 ft | 226 kts | 345° |
| 2026-04-25 05:16 | 37.50837 | -122.16371 | 3479 ft | 214 kts | 345° |
| 2026-04-25 05:16 | 37.52248 | -122.16836 | 3144 ft | 205 kts | 343° |
| 2026-04-25 05:17 | 37.53433 | -122.17644 | 2993 ft | 182 kts | 309° |
| 2026-04-25 05:17 | 37.54080 | -122.18888 | 2953 ft | 157 kts | 301° |
| 2026-04-25 05:17 | 37.54619 | -122.19952 | 2835 ft | 140 kts | 305° |
| 2026-04-25 05:17 | 37.55179 | -122.20984 | 2601 ft | 142 kts | 299° |
| 2026-04-25 05:18 | 37.55643 | -122.22058 | 2440 ft | 141 kts | 296° |
| 2026-04-25 05:18 | 37.56104 | -122.23163 | 2211 ft | 140 kts | 295° |
| 2026-04-25 05:18 | 37.56541 | -122.24239 | 1993 ft | 138 kts | 296° |
| 2026-04-25 05:18 | 37.56976 | -122.25321 | 1789 ft | 137 kts | 296° |
| 2026-04-25 05:19 | 37.57426 | -122.26359 | 1624 ft | 135 kts | 299° |
| 2026-04-25 05:19 | 37.57894 | -122.27387 | 1459 ft | 135 kts | 297° |
| 2026-04-25 05:19 | 37.58330 | -122.28437 | 1302 ft | 136 kts | 294° |
| 2026-04-25 05:19 | 37.58756 | -122.29496 | 1161 ft | 137 kts | 297° |
| 2026-04-25 05:20 | 37.59184 | -122.30570 | 1026 ft | 139 kts | 292° |
| 2026-04-25 05:20 | 37.59655 | -122.31655 | 860 ft | 136 kts | 295° |
| 2026-04-25 05:20 | 37.60068 | -122.32692 | 510 ft | 130 kts | 299° |
| 2026-04-25 05:20 | 37.60525 | -122.33737 | 390 ft | 139 kts | 295° |
| 2026-04-25 05:21 | 37.60971 | -122.34802 | 242 ft | 138 kts | 297° |
| 2026-04-25 05:21 | 37.61425 | -122.35888 | 53 ft | 140 kts | 295° |
| 2026-04-25 05:21 | 37.61850 | -122.36903 | 15 ft | 121 kts | 296° |
| 2026-04-25 05:21 | 37.62158 | -122.37637 | 27 ft | 63 kts | 296° |
| 2026-04-25 05:22 | 37.62218 | -122.38011 | 33 ft | 25 kts | 277° |
| 2026-04-25 05:22 | 37.62224 | -122.38077 | 33 ft | 0 kts | 277° |
| 2026-04-25 05:23 | 37.62225 | -122.38083 | 33 ft | 4 kts | 277° |
| 2026-04-25 05:23 | 37.62225 | -122.38224 | 32 ft | 21 kts | 254° |
| 2026-04-25 05:23 | 37.62146 | -122.38318 | 34 ft | 9 kts | 212° |
| 2026-04-25 05:24 | 37.62125 | -122.38399 | 34 ft | 14 kts | 288° |
| 2026-04-25 05:24 | 37.62180 | -122.38545 | 33 ft | 19 kts | 291° |
| 2026-04-25 05:24 | 37.62174 | -122.38698 | 34 ft | 15 kts | 278° |
| 2026-04-25 05:24 | 37.62178 | -122.38792 | 34 ft | 6 kts | 226° |
| 2026-04-25 05:25 | 37.62149 | -122.38814 | 34 ft | 4 kts | 209° |
| 2026-04-25 05:25 | 37.62123 | -122.38833 | 34 ft | 4 kts | 210° |
| 2026-04-25 05:25 | 37.62103 | -122.38847 | 34 ft | 0 kts | 209° |